Time;durP1;ratioP1;P1;durP2;ratioP2;P2;SDS_P1;SDS_P2;PMS_P1;PMS_P2;Temp;Humidity;BMP_temperature;BMP_pressure;BME280_temperature;BME280_humidity;BME280_pressure;Samples;Min_cycle;Max_cycle;Signal;HPM_P1;HPM_P2
2022/11/05 00:10:49;;;;;;;2.60;0.90;;;;;;;7.73;95.24;101417.09;5041719;28;20025;-74
2022/11/05 00:18:43;;;;;;;2.45;1.00;;;;;;;7.77;95.54;101426.31;5040374;28;20075;-74
2022/11/05 00:25:12;;;;;;;1.92;0.90;;;;;;;7.78;95.27;101417.66;5041485;28;20107;-75
2022/11/05 00:26:39;;;;;;;3.38;1.10;;;;;;;7.74;95.14;101423.91;5041188;28;20032;-75
2022/11/05 00:29:04;;;;;;;3.22;1.00;;;;;;;7.72;94.65;101430.91;5043743;28;20265;-75
2022/11/05 00:31:31;;;;;;;2.38;0.98;;;;;;;7.70;95.09;101437.94;5048502;28;20451;-75
2022/11/05 00:33:56;;;;;;;1.92;0.90;;;;;;;7.70;95.08;101437.94;5039639;28;20494;-74
2022/11/05 00:36:22;;;;;;;1.05;0.95;;;;;;;7.66;94.22;101431.28;5044656;28;20033;-75
2022/11/05 00:38:47;;;;;;;4.53;1.15;;;;;;;7.59;94.69;101440.31;5029175;28;20041;-74
2022/11/05 00:41:13;;;;;;;3.80;1.08;;;;;;;7.56;95.08;101441.31;5045569;28;20139;-77
2022/11/05 00:46:22;;;;;;;1.48;0.90;;;;;;;7.55;95.15;101444.00;5048165;28;20067;-75
2022/11/05 00:51:31;;;;;;;1.75;1.20;;;;;;;7.51;95.15;101450.25;5055767;28;20043;-75
2022/11/05 00:53:57;;;;;;;4.30;1.10;;;;;;;7.49;94.74;101452.09;5061947;28;20112;-74
2022/11/05 00:56:22;;;;;;;3.80;0.88;;;;;;;7.45;94.64;101459.19;5062589;28;20025;-75
2022/11/05 00:58:48;;;;;;;0.88;0.73;;;;;;;7.40;95.05;101467.22;5047041;28;20054;-75
2022/11/05 01:01:13;;;;;;;3.75;1.33;;;;;;;7.34;94.84;101462.41;5047142;28;20507;-74
2022/11/05 01:03:39;;;;;;;2.78;1.00;;;;;;;7.34;94.34;101467.59;5057316;28;20132;-76
2022/11/05 01:06:10;;;;;;;3.70;1.00;;;;;;;7.33;94.28;101476.22;5047350;28;20540;-74
2022/11/05 01:08:36;;;;;;;1.65;0.80;;;;;;;7.29;93.89;101469.59;5047782;28;20029;-74
2022/11/05 01:11:09;;;;;;;3.22;0.93;;;;;;;7.25;94.38;101478.41;5046232;28;20516;-75
2022/11/05 01:13:34;;;;;;;4.80;1.30;;;;;;;7.22;94.10;101488.91;5048487;28;20496;-75
2022/11/05 01:16:06;;;;;;;1.92;1.10;;;;;;;7.17;93.46;101485.78;5029096;28;20017;-75
2022/11/05 01:18:31;;;;;;;2.97;1.40;;;;;;;7.14;93.91;101491.09;5044020;28;20055;-74
2022/11/05 01:20:57;;;;;;;4.72;1.52;;;;;;;7.14;93.57;101491.09;5047808;28;20480;-74
2022/11/05 01:23:22;;;;;;;4.00;1.83;;;;;;;7.07;94.26;101487.22;5046791;28;20032;-75
2022/11/05 01:25:47;;;;;;;4.10;1.75;;;;;;;7.09;93.73;101493.09;5046441;28;20029;-75
2022/11/05 01:28:13;;;;;;;5.30;1.88;;;;;;;7.07;94.60;101500.09;5043991;28;20043;-75
2022/11/05 01:30:39;;;;;;;8.70;2.17;;;;;;;6.98;93.80;101495.44;5045006;28;20151;-75
2022/11/05 01:33:04;;;;;;;2.78;1.60;;;;;;;6.98;94.39;101495.44;5052903;28;20025;-74
2022/11/05 01:35:30;;;;;;;4.90;2.22;;;;;;;6.91;93.56;101495.78;5052285;28;20032;-75
2022/11/05 01:37:55;;;;;;;2.92;1.75;;;;;;;6.91;94.07;101507.84;5037641;28;20439;-75
2022/11/05 01:40:22;;;;;;;4.07;1.95;;;;;;;6.86;93.91;101502.94;5043356;28;20148;-75
2022/11/05 01:42:48;;;;;;;3.92;1.92;;;;;;;6.84;94.50;101504.78;5047620;28;20028;-77
2022/11/05 01:45:27;;;;;;;4.60;1.95;;;;;;;6.84;94.39;101504.78;5052151;28;20079;-75
2022/11/05 01:47:52;;;;;;;;;;;;;;;6.88;93.57;101518.31;5051916;28;20063;-74
2022/11/05 01:50:42;;;;;;;3.92;1.98;;;;;;;6.82;94.43;101511.75;5049365;28;19959;-75
2022/11/05 01:53:16;;;;;;;3.60;1.70;;;;;;;6.80;94.10;101512.75;5042795;28;20064;-74
2022/11/05 01:55:46;;;;;;;4.80;1.73;;;;;;;6.76;94.07;101504.34;5048918;28;20020;-74
2022/11/05 01:58:18;;;;;;;3.45;1.70;;;;;;;6.78;94.29;101504.28;5078441;28;20020;-75
2022/11/05 02:00:43;;;;;;;2.83;1.55;;;;;;;6.70;93.82;101491.81;5045775;28;20021;-75
2022/11/05 02:03:10;;;;;;;5.80;1.90;;;;;;;6.71;94.20;101493.50;5044596;28;20587;-74
2022/11/05 02:05:38;;;;;;;5.50;2.08;;;;;;;6.72;94.09;101495.16;5042095;28;20035;-74
2022/11/05 02:08:04;;;;;;;4.53;1.90;;;;;;;6.72;93.84;101484.84;5035699;28;20036;-74
2022/11/05 02:10:29;;;;;;;4.28;1.98;;;;;;;6.68;94.41;101483.34;5043313;28;20033;-74
2022/11/05 02:12:55;;;;;;;5.53;2.05;;;;;;;6.71;94.27;101487.47;5045821;28;20115;-74
2022/11/05 02:15:35;;;;;;;5.22;2.17;;;;;;;6.67;93.85;101492.00;5042882;28;20556;-74
2022/11/05 02:18:33;;;;;;;4.22;2.13;;;;;;;6.68;94.19;101488.50;5048117;28;20020;-75
2022/11/05 02:21:04;;;;;;;8.00;2.43;;;;;;;6.66;93.63;101487.75;4971151;28;20042;-74
2022/11/05 02:23:38;;;;;;;5.57;2.25;;;;;;;6.67;94.01;101498.91;4967249;28;20289;-75
2022/11/05 02:26:19;;;;;;;5.70;2.10;;;;;;;6.61;94.13;101497.47;4979520;28;20079;-74
2022/11/05 02:29:10;;;;;;;6.18;2.10;;;;;;;6.53;93.95;101481.56;4964948;28;20042;-74
2022/11/05 02:31:47;;;;;;;4.85;2.25;;;;;;;6.53;94.26;101489.31;4963385;28;20039;-75
2022/11/05 02:34:34;;;;;;;4.75;2.67;;;;;;;6.50;94.44;101492.91;4970484;28;20042;-75
2022/11/05 02:37:21;;;;;;;5.30;3.17;;;;;;;6.49;94.45;101493.00;4963315;28;20039;-74
2022/11/05 02:40:00;;;;;;;5.80;2.70;;;;;;;6.46;94.01;101482.84;4962972;28;20189;-75
2022/11/05 02:42:51;;;;;;;6.18;3.00;;;;;;;6.44;94.30;101492.41;4969085;28;20049;-75
2022/11/05 02:45:52;;;;;;;4.85;2.63;;;;;;;6.43;94.22;101494.16;4969453;28;20046;-75
2022/11/05 02:48:44;;;;;;;8.30;3.40;;;;;;;6.33;94.75;101473.19;4956945;28;20046;-74
2022/11/05 02:51:16;;;;;;;8.32;2.92;;;;;;;6.37;94.39;101485.00;4968046;28;20502;-74
2022/11/05 02:53:50;;;;;;;6.00;3.25;;;;;;;6.33;95.43;101483.50;4971538;28;20043;-76
2022/11/05 02:56:30;;;;;;;9.48;3.72;;;;;;;6.36;95.49;101482.47;4975447;28;20419;-74
2022/11/05 02:58:56;;;;;;;10.40;3.60;;;;;;;6.26;94.91;101476.19;5050759;28;20044;-75
2022/11/05 03:01:21;;;;;;;10.00;3.78;;;;;;;6.29;95.31;101487.13;5043453;28;20041;-77
2022/11/05 03:03:59;;;;;;;8.18;3.50;;;;;;;6.27;94.73;101481.25;5047034;28;20033;-74
2022/11/05 03:06:30;;;;;;;7.50;3.87;;;;;;;6.25;95.31;101488.22;5041418;28;20112;-74
2022/11/05 03:09:10;;;;;;;8.95;3.80;;;;;;;6.25;95.03;101485.66;5045534;28;20028;-74
2022/11/05 03:11:53;;;;;;;7.32;4.07;;;;;;;6.26;94.98;101487.31;5039072;28;20033;-75
2022/11/05 03:14:47;;;;;;;9.02;4.05;;;;;;;6.24;94.75;101483.97;5045292;28;20024;-74
2022/11/05 03:17:44;;;;;;;8.55;4.20;;;;;;;6.20;94.66;101482.50;5050572;28;20036;-74
2022/11/05 03:20:28;;;;;;;8.48;4.10;;;;;;;6.19;95.52;101492.84;5055392;28;20078;-74
2022/11/05 03:23:07;;;;;;;8.20;4.15;;;;;;;6.14;95.56;101482.81;5035303;28;20037;-74
2022/11/05 03:25:40;;;;;;;7.72;4.13;;;;;;;6.11;95.78;101488.94;5045069;28;20036;-74
2022/11/05 03:28:09;;;;;;;7.50;4.43;;;;;;;6.05;95.64;101481.53;5044493;28;20025;-75
2022/11/05 03:30:36;;;;;;;6.68;4.47;;;;;;;6.06;95.45;101484.94;5050085;28;20110;-75
2022/11/05 03:33:10;;;;;;;7.78;3.95;;;;;;;6.05;95.78;101493.59;5037521;28;20052;-75
2022/11/05 03:35:44;;;;;;;8.20;4.40;;;;;;;6.04;95.36;101481.63;5050764;28;20082;-75
2022/11/05 03:38:15;;;;;;;7.78;4.22;;;;;;;6.01;95.03;101486.91;5029350;28;20500;-74
2022/11/05 03:40:43;;;;;;;8.57;4.00;;;;;;;5.96;95.33;101489.72;5041679;28;20527;-74
2022/11/05 03:43:09;;;;;;;7.47;4.18;;;;;;;5.92;95.89;101493.38;5036964;28;20053;-75
2022/11/05 03:45:39;;;;;;;8.38;4.30;;;;;;;5.94;95.20;101495.88;5029417;28;20435;-74
2022/11/05 03:48:09;;;;;;;9.85;4.50;;;;;;;5.86;95.47;101494.50;5041249;28;20465;-75
2022/11/05 03:50:41;;;;;;;9.35;4.18;;;;;;;5.90;95.05;101500.31;5041523;28;20068;-74
2022/11/05 03:53:14;;;;;;;8.32;4.43;;;;;;;5.90;95.54;101491.75;5033688;28;20056;-74
2022/11/05 03:55:47;;;;;;;10.98;4.80;;;;;;;5.89;95.32;101498.66;5035532;28;20035;-75
2022/11/05 03:58:17;;;;;;;7.68;4.13;;;;;;;5.86;95.61;101509.13;5051966;28;20154;-74
2022/11/05 04:00:42;;;;;;;5.90;3.35;;;;;;;5.84;95.66;101501.44;5051310;28;20423;-74
2022/11/05 04:03:08;;;;;;;7.25;4.03;;;;;;;5.83;95.44;101494.66;5049668;28;20477;-74
2022/11/05 04:05:33;;;;;;;10.25;5.00;;;;;;;5.82;95.49;101499.88;5051000;28;20138;-74
2022/11/05 04:13:27;;;;;;;8.20;4.13;;;;;;;5.71;95.01;101508.13;5036342;28;20048;-75
2022/11/05 04:18:39;;;;;;;6.93;3.63;;;;;;;5.63;95.22;101502.56;5035752;28;20535;-75
2022/11/05 04:24:08;;;;;;;6.53;3.47;;;;;;;5.61;94.71;101509.50;5041763;28;20465;-75
2022/11/05 04:26:45;;;;;;;10.38;3.92;;;;;;;5.61;95.00;101514.66;5052914;28;20503;-75
2022/11/05 04:31:55;;;;;;;6.43;3.60;;;;;;;5.44;95.64;101496.63;5046133;28;20533;-75
2022/11/05 04:34:23;;;;;;;9.80;4.15;;;;;;;5.54;95.21;101523.59;5042629;28;20036;-74
2022/11/05 04:36:52;;;;;;;8.05;4.03;;;;;;;5.51;95.83;101521.19;5050942;28;20726;-74
2022/11/05 04:39:18;;;;;;;8.35;4.35;;;;;;;5.49;95.85;101530.69;5048125;28;20115;-74
2022/11/05 04:41:49;;;;;;;8.48;4.50;;;;;;;5.46;95.52;101518.81;5047439;28;20234;-74
2022/11/05 04:44:15;;;;;;;9.50;3.85;;;;;;;5.47;95.51;101517.09;5053155;28;20033;-74
2022/11/05 04:46:40;;;;;;;8.35;4.25;;;;;;;5.38;95.80;101514.94;5048198;28;20043;-75
2022/11/05 04:49:06;;;;;;;9.10;4.28;;;;;;;5.40;96.19;101520.88;5045516;28;20060;-74
2022/11/05 04:51:31;;;;;;;8.35;3.67;;;;;;;5.42;95.93;101534.47;5041692;28;20071;-74
2022/11/05 04:53:57;;;;;;;7.30;4.22;;;;;;;5.40;95.53;101529.41;5041068;28;20410;-75
2022/11/05 04:56:24;;;;;;;7.93;3.75;;;;;;;5.39;95.65;101519.19;5046670;28;20051;-74
2022/11/05 04:58:50;;;;;;;7.28;4.40;;;;;;;5.33;95.80;101521.19;5046930;28;20056;-75
2022/11/05 05:01:19;;;;;;;8.20;4.40;;;;;;;5.33;96.15;101521.19;5041959;28;20052;-75
2022/11/05 05:03:50;;;;;;;9.07;4.88;;;;;;;5.32;96.49;101528.94;5040114;28;20029;-74
2022/11/05 05:06:16;;;;;;;7.22;4.28;;;;;;;5.27;96.34;101534.31;5044125;28;20047;-74
2022/11/05 05:08:42;;;;;;;9.15;5.00;;;;;;;5.27;96.68;101526.59;5042470;28;20460;-74
2022/11/05 05:11:11;;;;;;;9.75;5.72;;;;;;;5.28;96.59;101536.00;5048512;28;20533;-74
2022/11/05 05:13:36;;;;;;;10.23;5.15;;;;;;;5.21;96.66;101537.16;5045083;28;20080;-75
2022/11/05 05:16:07;;;;;;;11.60;6.18;;;;;;;5.25;96.45;101548.97;5040576;28;20052;-75
2022/11/05 05:18:32;;;;;;;7.90;5.10;;;;;;;5.22;96.18;101554.28;5048593;28;20037;-75
2022/11/05 05:23:43;;;;;;;9.60;5.72;;;;;;;5.21;96.92;101557.75;5047201;28;20039;-74
2022/11/05 05:26:09;;;;;;;10.15;5.72;;;;;;;5.16;96.84;101554.59;5044975;28;20025;-74
2022/11/05 05:28:34;;;;;;;9.45;5.25;;;;;;;5.20;96.86;101566.38;5046224;28;20083;-74
2022/11/05 05:31:00;;;;;;;8.02;5.30;;;;;;;5.18;96.43;101552.75;5051066;28;20024;-74
2022/11/05 05:33:27;;;;;;;10.25;5.32;;;;;;;5.18;96.60;101557.06;5047008;28;20459;-74
2022/11/05 05:35:55;;;;;;;10.68;5.72;;;;;;;5.17;96.70;101571.66;5039677;28;20128;-74
2022/11/05 05:38:21;;;;;;;10.65;6.30;;;;;;;5.11;96.79;101571.13;5046881;28;20121;-75
2022/11/05 05:40:46;;;;;;;9.63;5.85;;;;;;;5.11;96.71;101566.81;5061296;28;20485;-74
2022/11/05 05:43:11;;;;;;;10.38;5.28;;;;;;;5.10;97.01;101559.97;5040338;28;20032;-74
2022/11/05 05:45:38;;;;;;;10.55;6.07;;;;;;;5.13;96.92;101569.31;5043113;28;20071;-76
2022/11/05 05:48:04;;;;;;;10.32;5.72;;;;;;;5.06;96.93;101548.19;5051224;28;20028;-75
2022/11/05 05:50:29;;;;;;;10.18;5.97;;;;;;;5.08;96.69;101566.94;5057566;28;20032;-74
2022/11/05 05:52:54;;;;;;;9.73;5.13;;;;;;;5.05;96.69;101551.69;5044836;28;20033;-74
2022/11/05 05:55:20;;;;;;;10.88;6.65;;;;;;;5.12;96.70;101563.34;5044177;28;20033;-74
2022/11/05 05:57:45;;;;;;;12.73;5.60;;;;;;;5.16;96.67;101559.72;5053184;28;20480;-74
2022/11/05 06:00:12;;;;;;;8.77;5.60;;;;;;;5.10;96.92;101565.13;5049757;28;20497;-74
2022/11/05 06:02:37;;;;;;;9.50;5.38;;;;;;;5.11;96.71;101566.81;5046278;28;20130;-75
2022/11/05 06:05:03;;;;;;;9.30;5.40;;;;;;;5.09;96.71;101558.31;5064170;28;20441;-74
2022/11/05 06:07:28;;;;;;;7.95;5.35;;;;;;;5.09;96.61;101557.50;5046197;28;20374;-74
2022/11/05 06:09:53;;;;;;;9.57;5.53;;;;;;;5.10;96.54;101559.97;5047199;28;20466;-74
2022/11/05 06:12:19;;;;;;;11.38;6.57;;;;;;;5.06;96.71;101563.63;5052040;28;20028;-75
2022/11/05 06:14:44;;;;;;;11.27;6.20;;;;;;;5.03;96.95;101551.72;5044698;28;20029;-74
2022/11/05 06:17:09;;;;;;;13.13;5.93;;;;;;;5.08;96.62;101566.94;5046285;28;20064;-74
2022/11/05 06:19:35;;;;;;;10.65;5.57;;;;;;;5.07;96.63;101570.44;5045153;28;20083;-75
2022/11/05 06:22:00;;;;;;;12.48;6.13;;;;;;;5.07;97.00;101580.72;5051645;28;20037;-75
2022/11/05 06:24:26;;;;;;;11.93;6.50;;;;;;;5.07;96.36;101575.56;5043343;28;20075;-74
2022/11/05 06:26:51;;;;;;;9.00;6.05;;;;;;;5.05;96.41;101577.38;5043997;28;20021;-75
2022/11/05 06:29:16;;;;;;;11.68;6.95;;;;;;;5.05;96.63;101574.81;5043956;28;20027;-74
2022/11/05 06:31:42;;;;;;;9.75;6.32;;;;;;;5.05;97.33;101574.81;5048175;28;20025;-74
2022/11/05 06:34:07;;;;;;;12.85;7.03;;;;;;;5.04;97.25;101576.53;5043821;28;20457;-76
2022/11/05 06:36:33;;;;;;;10.00;6.38;;;;;;;5.03;97.06;101574.03;5045379;28;20036;-75
2022/11/05 06:38:58;;;;;;;10.25;6.22;;;;;;;5.02;97.51;101569.81;5059698;28;20028;-74
2022/11/05 06:41:23;;;;;;;13.75;6.57;;;;;;;5.00;97.28;101574.19;5045558;28;20563;-75
2022/11/05 06:43:49;;;;;;;11.90;7.00;;;;;;;4.97;97.29;101564.03;5043492;28;20444;-75
2022/11/05 06:46:14;;;;;;;10.38;6.50;;;;;;;5.01;97.22;101581.00;5048754;28;20108;-74
2022/11/05 06:48:40;;;;;;;14.07;7.68;;;;;;;5.04;97.21;101583.41;5046955;28;20036;-74
2022/11/05 06:51:07;;;;;;;14.05;8.40;;;;;;;5.03;97.30;101589.47;5058028;28;20024;-74
2022/11/05 06:53:33;;;;;;;13.95;7.20;;;;;;;5.04;97.79;101585.97;5048088;28;20033;-75
2022/11/05 06:56:06;;;;;;;13.80;7.72;;;;;;;5.05;97.47;101582.53;5046302;28;20033;-74
2022/11/05 06:58:32;;;;;;;11.07;7.85;;;;;;;5.01;97.49;101581.81;5026058;28;20061;-74
2022/11/05 07:01:06;;;;;;;14.15;7.32;;;;;;;5.06;97.28;101592.75;5027094;28;20044;-75
2022/11/05 07:03:32;;;;;;;13.05;7.40;;;;;;;5.05;97.35;101592.81;5048904;28;20083;-74
2022/11/05 07:05:59;;;;;;;17.40;8.07;;;;;;;5.03;97.68;101584.31;5048551;28;20469;-74
2022/11/05 07:08:25;;;;;;;12.73;7.65;;;;;;;5.07;97.56;101596.13;5063332;28;20040;-75
2022/11/05 07:10:51;;;;;;;12.45;7.68;;;;;;;5.04;97.60;101597.09;5049061;28;20029;-74
2022/11/05 07:13:16;;;;;;;17.58;7.22;;;;;;;5.00;97.69;101594.75;5032696;28;20039;-74
2022/11/05 07:15:41;;;;;;;13.05;7.88;;;;;;;5.01;97.14;101591.28;5055509;28;20063;-75
2022/11/05 07:18:07;;;;;;;11.05;6.55;;;;;;;5.06;97.45;101607.34;5066086;28;20034;-75
2022/11/05 07:20:32;;;;;;;16.85;7.75;;;;;;;5.06;97.39;101604.75;5049630;28;20100;-74
2022/11/05 07:23:07;;;;;;;12.40;6.88;;;;;;;5.09;97.62;101608.91;5047146;28;20067;-74
2022/11/05 07:25:33;;;;;;;13.27;7.57;;;;;;;5.08;97.74;101613.22;5056998;28;20055;-74
2022/11/05 07:27:59;;;;;;;12.43;7.25;;;;;;;5.12;97.87;101614.75;5032816;28;20119;-74
2022/11/05 07:30:25;;;;;;;13.30;7.95;;;;;;;5.14;97.58;101612.94;5052547;28;20483;-74
2022/11/05 07:32:50;;;;;;;11.38;7.22;;;;;;;5.17;97.60;101612.81;5040736;28;20025;-75
2022/11/05 07:35:16;;;;;;;12.88;7.07;;;;;;;5.19;97.26;101616.13;5070436;28;20642;-77
2022/11/05 07:37:43;;;;;;;12.80;7.00;;;;;;;5.18;97.00;101611.06;5033197;28;20025;-75
2022/11/05 07:40:10;;;;;;;12.52;7.63;;;;;;;5.20;97.60;101617.81;5037005;28;20116;-75
2022/11/05 07:42:35;;;;;;;11.32;6.78;;;;;;;5.21;97.05;101622.03;5048743;28;20308;-74
2022/11/05 07:45:01;;;;;;;12.10;7.78;;;;;;;5.17;97.39;101623.09;5045647;28;20519;-75
2022/11/05 07:47:26;;;;;;;13.10;8.10;;;;;;;5.21;97.51;101629.75;5043463;28;20035;-74
2022/11/05 07:49:51;;;;;;;13.63;7.22;;;;;;;5.22;97.81;101621.16;5045182;28;20499;-74
2022/11/05 07:52:17;;;;;;;13.02;7.28;;;;;;;5.25;97.56;101623.56;5044678;28;20021;-74
2022/11/05 07:54:42;;;;;;;12.88;8.23;;;;;;;5.22;97.73;101620.31;5043613;28;20034;-74
2022/11/05 07:57:07;;;;;;;12.30;7.97;;;;;;;5.30;97.77;101634.47;5062073;28;20030;-75
2022/11/05 07:59:33;;;;;;;14.35;7.70;;;;;;;5.31;98.09;101615.56;5040284;28;20112;-75
2022/11/05 08:01:58;;;;;;;12.35;7.85;;;;;;;5.35;97.51;101630.88;5038945;28;20073;-75
2022/11/05 08:04:24;;;;;;;14.55;8.15;;;;;;;5.37;97.87;101632.44;5039040;28;20056;-75
2022/11/05 08:06:49;;;;;;;12.73;6.95;;;;;;;5.39;97.71;101624.66;5049193;28;20039;-75
2022/11/05 08:09:14;;;;;;;16.13;8.52;;;;;;;5.43;97.94;101628.75;5037765;28;20155;-75
2022/11/05 08:11:40;;;;;;;14.55;8.07;;;;;;;5.46;98.27;101628.63;5039374;28;20384;-75
2022/11/05 08:14:05;;;;;;;14.98;7.47;;;;;;;5.47;97.79;101630.28;5041799;28;20373;-75
2022/11/05 08:16:31;;;;;;;13.10;6.97;;;;;;;5.53;98.70;101630.00;5049826;28;20369;-74
2022/11/05 08:18:56;;;;;;;11.73;7.85;;;;;;;5.55;98.37;101623.84;5039452;28;20072;-74
2022/11/05 08:21:21;;;;;;;14.00;7.35;;;;;;;5.57;98.38;101631.53;5046329;28;20040;-75
2022/11/05 08:23:47;;;;;;;15.18;7.18;;;;;;;5.63;98.89;101620.94;5041859;28;20032;-75
2022/11/05 08:26:12;;;;;;;14.30;7.45;;;;;;;5.67;98.10;101622.44;5037302;28;20587;-75
2022/11/05 08:28:37;;;;;;;14.27;8.23;;;;;;;5.71;98.97;101623.97;5068033;28;20393;-75
2022/11/05 08:31:03;;;;;;;14.60;7.63;;;;;;;5.77;98.44;101618.50;5040588;28;21349;-74
2022/11/05 08:33:30;;;;;;;13.27;7.78;;;;;;;5.84;98.09;101625.03;5035285;28;20469;-75
2022/11/05 08:35:55;;;;;;;12.38;7.70;;;;;;;5.91;98.43;101625.59;5029825;28;20029;-75
2022/11/05 08:38:44;;;;;;;14.98;6.53;;;;;;;5.98;98.39;101615.84;5037340;28;20028;-79
2022/11/05 08:41:10;;;;;;;12.20;8.40;;;;;;;6.05;99.13;101622.34;5041961;28;20075;-75
2022/11/05 08:43:35;;;;;;;15.63;7.97;;;;;;;6.11;98.68;101620.28;5043980;28;20021;-75
2022/11/05 08:46:01;;;;;;;14.10;7.13;;;;;;;6.19;98.91;101619.88;5045043;28;20029;-75
2022/11/05 08:48:26;;;;;;;15.18;7.60;;;;;;;6.27;98.67;101622.09;5042606;28;20024;-76
2022/11/05 08:50:52;;;;;;;13.40;8.02;;;;;;;6.33;98.10;101627.75;5048260;28;20412;-75
2022/11/05 08:53:17;;;;;;;11.85;7.30;;;;;;;6.41;98.48;101634.25;5044156;28;20028;-75
2022/11/05 08:55:43;;;;;;;12.50;7.65;;;;;;;6.48;98.79;101630.44;5040677;28;20503;-75
2022/11/05 08:58:15;;;;;;;10.85;6.95;;;;;;;6.52;97.86;101627.66;5042838;28;20041;-76
2022/11/05 09:00:42;;;;;;;14.88;7.70;;;;;;;6.60;98.21;101624.69;5050061;28;20025;-76
2022/11/05 09:03:08;;;;;;;12.80;7.60;;;;;;;6.67;98.72;101636.34;5051252;28;20143;-76
2022/11/05 09:05:36;;;;;;;11.18;7.07;;;;;;;6.72;98.44;101629.19;5049454;28;20103;-76
2022/11/05 09:08:05;;;;;;;14.98;8.35;;;;;;;6.83;98.06;101632.06;5039016;28;20028;-76
2022/11/05 09:10:31;;;;;;;13.48;7.97;;;;;;;6.88;97.52;101629.19;5050493;28;20030;-76
2022/11/05 09:12:56;;;;;;;14.90;7.88;;;;;;;6.89;97.71;101616.25;5043282;28;20111;-75
2022/11/05 09:15:23;;;;;;;16.90;7.32;;;;;;;7.01;97.46;101619.09;5043905;28;20520;-75
2022/11/05 09:17:48;;;;;;;12.80;7.28;;;;;;;7.09;97.39;101627.22;5050321;28;20067;-76
2022/11/05 09:20:14;;;;;;;11.05;7.05;;;;;;;7.15;96.50;101621.72;5046066;28;20033;-76
2022/11/05 09:22:39;;;;;;;12.57;7.85;;;;;;;7.26;97.25;101640.03;5037924;28;20321;-75
2022/11/05 09:25:05;;;;;;;13.57;7.38;;;;;;;7.30;96.59;101633.81;5050663;28;20043;-76
2022/11/05 09:27:31;;;;;;;11.93;7.82;;;;;;;7.40;96.87;101642.72;5043706;28;20040;-76
2022/11/05 09:29:56;;;;;;;12.07;7.05;;;;;;;7.49;96.42;101641.34;5046412;28;20602;-76
2022/11/05 09:32:22;;;;;;;13.57;7.50;;;;;;;7.55;95.69;101641.00;5043023;28;20474;-75
2022/11/05 09:34:48;;;;;;;13.75;7.40;;;;;;;7.60;95.74;101638.19;5043783;28;20059;-76
2022/11/05 09:37:14;;;;;;;11.25;6.63;;;;;;;7.71;95.96;101635.84;5044163;28;20059;-76
2022/11/05 09:39:39;;;;;;;11.63;7.00;;;;;;;7.82;96.05;101648.97;5036479;28;20234;-75
2022/11/05 09:42:11;;;;;;;10.68;6.95;;;;;;;7.87;95.20;101644.38;5044009;28;20132;-76
2022/11/05 09:44:46;;;;;;;12.93;7.13;;;;;;;7.96;94.76;101646.41;5043822;28;20481;-75
2022/11/05 09:47:24;;;;;;;12.15;6.82;;;;;;;8.03;94.43;101653.81;5049051;28;20036;-76
2022/11/05 09:49:55;;;;;;;10.95;7.40;;;;;;;8.12;95.00;101650.69;5048329;28;20076;-75
2022/11/05 09:52:24;;;;;;;10.02;6.28;;;;;;;8.20;94.32;101653.66;5050459;28;20028;-75
2022/11/05 09:54:51;;;;;;;11.20;6.32;;;;;;;8.29;93.92;101652.31;5039394;28;20501;-76
2022/11/05 09:57:24;;;;;;;11.63;7.40;;;;;;;8.33;93.51;101641.72;5037524;28;20036;-76
2022/11/05 09:59:54;;;;;;;10.63;7.03;;;;;;;8.47;93.56;101653.84;5041556;28;20031;-76
2022/11/05 10:02:32;;;;;;;13.10;7.18;;;;;;;8.57;93.00;101656.72;5039032;28;20044;-75
2022/11/05 10:05:10;;;;;;;12.88;6.70;;;;;;;8.61;92.63;101660.78;5046197;28;20906;-75
2022/11/05 10:07:49;;;;;;;14.40;6.70;;;;;;;8.71;92.57;101667.03;5040739;28;20040;-76
2022/11/05 10:10:25;;;;;;;;;;;;;;;8.81;93.32;101670.75;5039197;28;20029;-76
2022/11/05 10:12:55;;;;;;;12.48;7.07;;;;;;;8.87;91.76;101672.94;5075471;28;19917;-76
2022/11/05 10:15:26;;;;;;;11.05;6.93;;;;;;;8.91;90.32;101666.69;5038698;28;20061;-76
2022/11/05 10:17:58;;;;;;;10.32;6.53;;;;;;;8.95;90.25;101678.50;5035403;28;20469;-76
2022/11/05 10:20:26;;;;;;;10.50;5.88;;;;;;;9.00;89.98;101671.31;5037209;28;20036;-75
2022/11/05 10:22:57;;;;;;;10.77;6.03;;;;;;;9.02;89.63;101664.25;5040164;28;20033;-76
2022/11/05 10:25:29;;;;;;;11.80;6.18;;;;;;;9.12;88.96;101680.06;5042687;28;20029;-76
2022/11/05 10:27:55;;;;;;;9.20;6.07;;;;;;;9.11;89.13;101674.97;5034922;28;20437;-75
2022/11/05 10:30:21;;;;;;;9.75;5.88;;;;;;;9.14;88.34;101674.78;5033052;28;20029;-75
2022/11/05 10:32:48;;;;;;;12.68;5.68;;;;;;;9.22;88.25;101680.31;5044944;28;20734;-76
2022/11/05 10:35:17;;;;;;;10.23;5.85;;;;;;;9.20;87.69;101671.81;5035574;28;20124;-76
2022/11/05 10:37:46;;;;;;;11.07;6.55;;;;;;;9.23;88.52;101671.59;5040632;28;20060;-76
2022/11/05 10:40:37;;;;;;;12.40;6.75;;;;;;;9.26;87.72;101682.63;5044654;28;20606;-76
2022/11/05 10:43:09;;;;;;;9.85;5.80;;;;;;;9.31;87.88;101679.75;5041730;28;20076;-76
2022/11/05 10:46:01;;;;;;;11.85;6.40;;;;;;;9.28;88.47;101672.16;5040314;28;20528;-75
2022/11/05 10:48:45;;;;;;;10.38;5.70;;;;;;;9.35;86.96;101686.41;5046453;28;20460;-76
2022/11/05 10:51:11;;;;;;;11.55;5.78;;;;;;;9.33;86.79;101667.53;5053098;28;20058;-75
2022/11/05 10:53:38;;;;;;;11.18;5.88;;;;;;;9.37;87.28;101679.34;5034198;28;20087;-75
2022/11/05 10:56:23;;;;;;;10.85;5.85;;;;;;;9.39;87.68;101682.66;5050612;28;20478;-75
2022/11/05 10:58:55;;;;;;;10.02;5.57;;;;;;;9.37;87.75;101676.78;5033529;28;20040;-75
2022/11/05 11:01:23;;;;;;;11.77;5.82;;;;;;;9.45;87.88;101677.09;5042234;28;20035;-75
2022/11/05 11:04:04;;;;;;;11.15;6.32;;;;;;;9.46;87.94;101676.19;5043267;28;20047;-76
2022/11/05 11:06:33;;;;;;;9.43;5.55;;;;;;;9.46;87.67;101676.19;5037682;28;20123;-76
2022/11/05 11:09:02;;;;;;;9.18;5.72;;;;;;;9.50;87.44;101679.41;5034678;28;20060;-75
2022/11/05 11:11:39;;;;;;;10.32;5.70;;;;;;;9.52;87.75;101678.41;5043412;28;20292;-75
2022/11/05 11:14:10;;;;;;;8.95;5.43;;;;;;;9.55;87.97;101678.19;5037685;28;20056;-75
2022/11/05 11:16:41;;;;;;;9.75;5.60;;;;;;;9.52;87.14;101673.22;5025836;28;20136;-75
2022/11/05 11:19:33;;;;;;;11.52;5.50;;;;;;;9.56;86.82;101685.03;5046107;28;20107;-75
2022/11/05 11:22:02;;;;;;;11.70;6.30;;;;;;;9.56;86.84;101679.84;5052462;28;20040;-75
2022/11/05 11:24:28;;;;;;;10.57;6.60;;;;;;;9.57;86.68;101676.31;5034915;28;20025;-75
2022/11/05 11:27:02;;;;;;;9.70;5.72;;;;;;;9.62;86.79;101677.78;5038310;28;20067;-76
2022/11/05 11:29:29;;;;;;;10.07;5.30;;;;;;;9.61;86.61;101670.97;5044342;28;20060;-76
2022/11/05 11:31:58;;;;;;;10.95;6.20;;;;;;;9.61;87.15;101666.59;5035197;28;20023;-75
2022/11/05 11:34:32;;;;;;;10.25;6.25;;;;;;;9.65;86.33;101669.84;5058211;28;20037;-76
2022/11/05 11:37:06;;;;;;;10.52;5.80;;;;;;;9.65;86.22;101673.25;5054328;28;20024;-75
2022/11/05 11:39:32;;;;;;;11.27;5.38;;;;;;;9.63;86.21;101663.91;5043086;28;20681;-75
2022/11/05 11:42:25;;;;;;;12.02;5.82;;;;;;;9.67;87.70;101670.56;5043635;28;20673;-75
2022/11/05 11:44:51;;;;;;;10.60;5.38;;;;;;;9.67;86.98;101671.41;5040352;28;20074;-76
2022/11/05 11:47:19;;;;;;;11.02;5.30;;;;;;;9.67;86.48;101670.56;5046889;28;20376;-77
2022/11/05 11:49:52;;;;;;;12.95;5.18;;;;;;;9.73;86.58;101677.94;5044246;28;20056;-76
2022/11/05 11:52:24;;;;;;;11.43;5.40;;;;;;;9.72;86.26;101676.28;5049646;28;20388;-76
2022/11/05 11:54:51;;;;;;;10.55;5.97;;;;;;;9.69;86.55;101669.56;5045586;28;20032;-78
2022/11/05 11:57:25;;;;;;;9.20;5.05;;;;;;;9.74;86.09;101666.66;5039696;28;20127;-78
2022/11/05 11:59:52;;;;;;;9.30;5.68;;;;;;;9.76;86.46;101664.81;5037610;28;20032;-75
2022/11/05 12:02:33;;;;;;;10.20;5.88;;;;;;;9.79;85.93;101664.59;5035235;28;20030;-75
2022/11/05 12:05:11;;;;;;;12.52;5.70;;;;;;;9.83;86.34;101661.72;5043709;28;20037;-76
2022/11/05 12:07:43;;;;;;;9.77;5.18;;;;;;;9.87;85.76;101654.56;5043573;28;20080;-77
2022/11/05 12:10:27;;;;;;;11.40;5.63;;;;;;;9.87;85.77;101651.97;5047917;28;20473;-76
2022/11/05 12:13:18;;;;;;;11.57;5.38;;;;;;;9.89;85.75;101644.94;5032636;28;20025;-76
2022/11/05 12:15:56;;;;;;;9.23;5.35;;;;;;;9.86;84.59;101639.94;5043057;28;20040;-76
2022/11/05 12:18:27;;;;;;;10.95;5.50;;;;;;;9.90;84.32;101656.94;5031042;28;20037;-76
2022/11/05 12:21:12;;;;;;;13.63;5.30;;;;;;;9.93;85.47;101656.75;5044601;28;20025;-76